createdAt,value
2023-03-10T00:00:17.657Z,11.77
2023-03-10T00:15:08.966Z,11.73
2023-03-10T00:29:59.506Z,11.54
2023-03-10T00:44:50.367Z,11.29
2023-03-10T00:59:50.109Z,11.10
2023-03-10T01:14:31.160Z,10.92
2023-03-10T01:29:22.178Z,10.82
2023-03-10T01:44:14.912Z,10.73
2023-03-10T01:59:08.524Z,10.66
2023-03-10T02:14:01.366Z,10.77
2023-03-10T13:25:42.865Z,10.34
2023-03-10T13:28:08.838Z,10.36
2023-03-10T13:42:37.062Z,10.12
2023-03-10T13:57:26.828Z,10.02
2023-03-10T14:12:23.090Z,10.17
2023-03-10T14:27:15.351Z,10.15
2023-03-10T14:42:05.941Z,10.29
2023-03-10T14:56:56.626Z,9.74
2023-03-10T15:11:46.734Z,9.73
2023-03-10T15:26:38.782Z,9.69
2023-03-10T15:41:30.608Z,9.24
2023-03-10T15:56:20.727Z,9.43
2023-03-10T16:11:15.267Z,9.62
2023-03-10T16:26:16.280Z,9.70
2023-03-10T16:41:10.757Z,9.68
2023-03-10T16:56:03.494Z,9.33
2023-03-10T17:10:53.664Z,8.62
2023-03-10T17:25:43.419Z,7.80
2023-03-10T17:40:33.417Z,7.91
2023-03-10T17:55:27.197Z,8.02
2023-03-10T18:10:16.872Z,7.98
2023-03-10T18:25:09.935Z,8.01
2023-03-10T18:39:58.990Z,7.78
2023-03-10T18:54:47.554Z,7.11
2023-03-10T19:09:38.538Z,7.11
2023-03-10T19:24:28.629Z,7.16
2023-03-10T19:39:17.194Z,6.07
2023-03-10T19:54:05.714Z,6.12
2023-03-10T20:08:55.361Z,6.27
2023-03-10T20:23:45.967Z,6.29
2023-03-10T20:38:36.611Z,6.25
2023-03-10T20:53:27.660Z,6.18
2023-03-10T21:08:17.673Z,6.06
2023-03-10T21:23:08.211Z,5.95
2023-03-10T21:37:58.919Z,5.96
2023-03-10T21:52:47.683Z,5.92
2023-03-10T22:07:37.651Z,5.89
2023-03-10T22:22:27.532Z,5.73
2023-03-10T22:37:18.485Z,5.65
2023-03-10T22:52:08.600Z,5.53
2023-03-10T23:22:05.044Z,5.15
2023-03-10T23:36:54.492Z,4.89
2023-03-10T23:51:43.593Z,4.74
